sensor_id;sensor_type;location;lat;lon;timestamp;pressure;altitude;pressure_sealevel;temperature
7830;BMP180;3960;51.86894000;5.39848000;2023-05-06T00:00:55;101694.88;;;12.34
7830;BMP180;3960;51.86894000;5.39848000;2023-05-06T00:03:20;101687.91;;;12.33
7830;BMP180;3960;51.86894000;5.39848000;2023-05-06T00:05:45;101684.78;;;12.35
7830;BMP180;3960;51.86894000;5.39848000;2023-05-06T00:08:11;101682.06;;;12.35
7830;BMP180;3960;51.86894000;5.39848000;2023-05-06T00:10:36;101676.22;;;12.36
7830;BMP180;3960;51.86894000;5.39848000;2023-05-06T00:13:03;101679.34;;;12.38
7830;BMP180;3960;51.86894000;5.39848000;2023-05-06T00:15:28;101680.13;;;12.38
7830;BMP180;3960;51.86894000;5.39848000;2023-05-06T00:17:53;101675.47;;;12.39
7830;BMP180;3960;51.86894000;5.39848000;2023-05-06T00:20:19;101665.38;;;12.33
7830;BMP180;3960;51.86894000;5.39848000;2023-05-06T00:22:45;101666.94;;;12.34
7830;BMP180;3960;51.86894000;5.39848000;2023-05-06T00:25:10;101667.72;;;12.38
7830;BMP180;3960;51.86894000;5.39848000;2023-05-06T00:27:35;101685.19;;;12.37
7830;BMP180;3960;51.86894000;5.39848000;2023-05-06T00:30:01;101680.91;;;12.36
7830;BMP180;3960;51.86894000;5.39848000;2023-05-06T00:32:26;101680.91;;;12.32
7830;BMP180;3960;51.86894000;5.39848000;2023-05-06T00:34:51;101670.06;;;12.29
7830;BMP180;3960;51.86894000;5.39848000;2023-05-06T00:37:16;101667.78;;;12.24
7830;BMP180;3960;51.86894000;5.39848000;2023-05-06T00:39:42;101671.66;;;12.23
7830;BMP180;3960;51.86894000;5.39848000;2023-05-06T00:42:07;101668.94;;;12.19
7830;BMP180;3960;51.86894000;5.39848000;2023-05-06T00:44:32;101671.28;;;12.17
7830;BMP180;3960;51.86894000;5.39848000;2023-05-06T00:46:58;101671.69;;;12.16
7830;BMP180;3960;51.86894000;5.39848000;2023-05-06T00:49:26;101663.94;;;12.14
7830;BMP180;3960;51.86894000;5.39848000;2023-05-06T00:51:52;101659.28;;;12.11
7830;BMP180;3960;51.86894000;5.39848000;2023-05-06T00:54:18;101659.69;;;12.10
7830;BMP180;3960;51.86894000;5.39848000;2023-05-06T00:56:43;101639.97;;;11.99
7830;BMP180;3960;51.86894000;5.39848000;2023-05-06T00:59:09;101656.25;;;12.02
7830;BMP180;3960;51.86894000;5.39848000;2023-05-06T01:01:34;101657.00;;;11.99
7830;BMP180;3960;51.86894000;5.39848000;2023-05-06T01:03:59;101645.78;;;11.90
7830;BMP180;3960;51.86894000;5.39848000;2023-05-06T01:06:34;101650.03;;;11.98
7830;BMP180;3960;51.86894000;5.39848000;2023-05-06T01:09:13;101647.72;;;12.00
7830;BMP180;3960;51.86894000;5.39848000;2023-05-06T01:11:51;101646.56;;;11.98
7830;BMP180;3960;51.86894000;5.39848000;2023-05-06T01:17:22;101640.34;;;11.90
7830;BMP180;3960;51.86894000;5.39848000;2023-05-06T01:19:51;101644.25;;;11.89
7830;BMP180;3960;51.86894000;5.39848000;2023-05-06T01:22:18;101641.56;;;11.86
7830;BMP180;3960;51.86894000;5.39848000;2023-05-06T01:24:44;101644.28;;;11.82
7830;BMP180;3960;51.86894000;5.39848000;2023-05-06T01:27:12;101642.34;;;11.79
7830;BMP180;3960;51.86894000;5.39848000;2023-05-06T01:29:40;101637.72;;;11.76
7830;BMP180;3960;51.86894000;5.39848000;2023-05-06T01:34:59;101632.31;;;11.69
7830;BMP180;3960;51.86894000;5.39848000;2023-05-06T01:37:47;101645.09;;;11.69
7830;BMP180;3960;51.86894000;5.39848000;2023-05-06T01:40:16;101637.34;;;11.67
7830;BMP180;3960;51.86894000;5.39848000;2023-05-06T01:42:46;101643.94;;;11.66
7830;BMP180;3960;51.86894000;5.39848000;2023-05-06T01:45:13;101632.34;;;11.59
7830;BMP180;3960;51.86894000;5.39848000;2023-05-06T01:47:39;101645.09;;;11.62
7830;BMP180;3960;51.86894000;5.39848000;2023-05-06T01:50:05;101648.63;;;11.59
7830;BMP180;3960;51.86894000;5.39848000;2023-05-06T01:52:31;101641.63;;;11.48
7830;BMP180;3960;51.86894000;5.39848000;2023-05-06T01:54:56;101652.91;;;11.53
7830;BMP180;3960;51.86894000;5.39848000;2023-05-06T01:57:21;101659.47;;;11.52
7830;BMP180;3960;51.86894000;5.39848000;2023-05-06T01:59:46;101653.25;;;11.52
7830;BMP180;3960;51.86894000;5.39848000;2023-05-06T02:02:12;101654.78;;;11.49
7830;BMP180;3960;51.86894000;5.39848000;2023-05-06T02:04:37;101660.63;;;11.48
7830;BMP180;3960;51.86894000;5.39848000;2023-05-06T02:07:02;101661.38;;;11.45
7830;BMP180;3960;51.86894000;5.39848000;2023-05-06T02:09:28;101670.72;;;11.44
7830;BMP180;3960;51.86894000;5.39848000;2023-05-06T02:11:53;101664.50;;;11.40
7830;BMP180;3960;51.86894000;5.39848000;2023-05-06T02:14:18;101665.28;;;11.40
7830;BMP180;3960;51.86894000;5.39848000;2023-05-06T02:16:43;101661.38;;;11.38
7830;BMP180;3960;51.86894000;5.39848000;2023-05-06T02:19:09;101667.59;;;11.35
7830;BMP180;3960;51.86894000;5.39848000;2023-05-06T02:21:34;101665.66;;;11.25
7830;BMP180;3960;51.86894000;5.39848000;2023-05-06T02:23:59;101675.75;;;11.28
7830;BMP180;3960;51.86894000;5.39848000;2023-05-06T02:26:25;101669.16;;;11.25
7830;BMP180;3960;51.86894000;5.39848000;2023-05-06T02:28:50;101666.06;;;11.23
7830;BMP180;3960;51.86894000;5.39848000;2023-05-06T02:31:16;101651.34;;;11.17
7830;BMP180;3960;51.86894000;5.39848000;2023-05-06T02:33:43;101665.69;;;11.21
7830;BMP180;3960;51.86894000;5.39848000;2023-05-06T02:36:08;101654.44;;;11.16
7830;BMP180;3960;51.86894000;5.39848000;2023-05-06T02:38:34;101656.78;;;11.17
7830;BMP180;3960;51.86894000;5.39848000;2023-05-06T02:40:59;101653.66;;;11.08
7830;BMP180;3960;51.86894000;5.39848000;2023-05-06T02:43:24;101666.84;;;11.10
7830;BMP180;3960;51.86894000;5.39848000;2023-05-06T02:45:49;101664.91;;;11.07
7830;BMP180;3960;51.86894000;5.39848000;2023-05-06T02:48:15;101660.28;;;11.04
7830;BMP180;3960;51.86894000;5.39848000;2023-05-06T02:50:40;101654.84;;;11.04
7830;BMP180;3960;51.86894000;5.39848000;2023-05-06T02:53:05;101646.72;;;10.97
7830;BMP180;3960;51.86894000;5.39848000;2023-05-06T02:55:32;101655.59;;;11.01
7830;BMP180;3960;51.86894000;5.39848000;2023-05-06T02:57:58;101659.09;;;10.98
7830;BMP180;3960;51.86894000;5.39848000;2023-05-06T03:00:23;101656.41;;;10.98
7830;BMP180;3960;51.86894000;5.39848000;2023-05-06T03:02:48;101657.91;;;10.99
7830;BMP180;3960;51.86894000;5.39848000;2023-05-06T03:05:14;101660.63;;;10.95
7830;BMP180;3960;51.86894000;5.39848000;2023-05-06T03:07:39;101658.31;;;10.94
7830;BMP180;3960;51.86894000;5.39848000;2023-05-06T03:10:05;101657.56;;;10.90
7830;BMP180;3960;51.86894000;5.39848000;2023-05-06T03:12:31;101657.53;;;10.87
7830;BMP180;3960;51.86894000;5.39848000;2023-05-06T03:14:56;101645.56;;;10.84
7830;BMP180;3960;51.86894000;5.39848000;2023-05-06T03:17:21;101648.63;;;10.83
7830;BMP180;3960;51.86894000;5.39848000;2023-05-06T03:19:48;101647.84;;;10.79
7830;BMP180;3960;51.86894000;5.39848000;2023-05-06T03:22:14;101648.63;;;10.76
7830;BMP180;3960;51.86894000;5.39848000;2023-05-06T03:24:39;101652.50;;;10.71
7830;BMP180;3960;51.86894000;5.39848000;2023-05-06T03:27:04;101640.09;;;10.70
7830;BMP180;3960;51.86894000;5.39848000;2023-05-06T03:29:30;101646.28;;;10.67
7830;BMP180;3960;51.86894000;5.39848000;2023-05-06T03:31:55;101649.00;;;10.67
7830;BMP180;3960;51.86894000;5.39848000;2023-05-06T03:34:21;101651.34;;;10.65
7830;BMP180;3960;51.86894000;5.39848000;2023-05-06T03:36:46;101642.41;;;10.61
7830;BMP180;3960;51.86894000;5.39848000;2023-05-06T03:39:11;101650.16;;;10.63
7830;BMP180;3960;51.86894000;5.39848000;2023-05-06T03:41:37;101650.16;;;10.63
7830;BMP180;3960;51.86894000;5.39848000;2023-05-06T03:44:02;101648.97;;;10.60
7830;BMP180;3960;51.86894000;5.39848000;2023-05-06T03:46:27;101651.69;;;10.57
7830;BMP180;3960;51.86894000;5.39848000;2023-05-06T03:48:52;101648.22;;;10.53
7830;BMP180;3960;51.86894000;5.39848000;2023-05-06T03:51:18;101657.09;;;10.53
7830;BMP180;3960;51.86894000;5.39848000;2023-05-06T03:53:43;101657.09;;;10.50
7830;BMP180;3960;51.86894000;5.39848000;2023-05-06T03:56:09;101664.84;;;10.51
7830;BMP180;3960;51.86894000;5.39848000;2023-05-06T03:58:35;101657.88;;;10.50
7830;BMP180;3960;51.86894000;5.39848000;2023-05-06T04:01:00;101666.41;;;10.52
7830;BMP180;3960;51.86894000;5.39848000;2023-05-06T04:03:26;101662.50;;;10.50
7830;BMP180;3960;51.86894000;5.39848000;2023-05-06T04:05:51;101664.84;;;10.48
7830;BMP180;3960;51.86894000;5.39848000;2023-05-06T04:08:16;101664.84;;;10.48
7830;BMP180;3960;51.86894000;5.39848000;2023-05-06T04:10:42;101657.09;;;10.46
7830;BMP180;3960;51.86894000;5.39848000;2023-05-06T04:13:07;101655.56;;;10.45
7830;BMP180;3960;51.86894000;5.39848000;2023-05-06T04:15:33;101659.78;;;10.39
7830;BMP180;3960;51.86894000;5.39848000;2023-05-06T04:17:59;101662.13;;;10.44
7830;BMP180;3960;51.86894000;5.39848000;2023-05-06T04:20:24;101664.84;;;10.48
7830;BMP180;3960;51.86894000;5.39848000;2023-05-06T04:22:50;101663.69;;;10.49
7830;BMP180;3960;51.86894000;5.39848000;2023-05-06T04:25:15;101669.88;;;10.53
7830;BMP180;3960;51.86894000;5.39848000;2023-05-06T04:27:42;101672.56;;;10.53
7830;BMP180;3960;51.86894000;5.39848000;2023-05-06T04:30:08;101669.13;;;10.52
7830;BMP180;3960;51.86894000;5.39848000;2023-05-06T04:32:33;101675.69;;;10.55
7830;BMP180;3960;51.86894000;5.39848000;2023-05-06T04:34:58;101675.69;;;10.55
7830;BMP180;3960;51.86894000;5.39848000;2023-05-06T04:37:24;101679.16;;;10.55
7830;BMP180;3960;51.86894000;5.39848000;2023-05-06T04:39:49;101689.25;;;10.62
7830;BMP180;3960;51.86894000;5.39848000;2023-05-06T04:42:14;101683.84;;;10.65
7830;BMP180;3960;51.86894000;5.39848000;2023-05-06T04:44:41;101690.78;;;10.70
7830;BMP180;3960;51.86894000;5.39848000;2023-05-06T04:47:07;101693.13;;;10.71
7830;BMP180;3960;51.86894000;5.39848000;2023-05-06T04:49:32;101694.69;;;10.69
7830;BMP180;3960;51.86894000;5.39848000;2023-05-06T04:51:57;101695.44;;;10.69
7830;BMP180;3960;51.86894000;5.39848000;2023-05-06T04:54:22;101683.06;;;10.68
7830;BMP180;3960;51.86894000;5.39848000;2023-05-06T04:56:48;101690.03;;;10.73
7830;BMP180;3960;51.86894000;5.39848000;2023-05-06T04:59:13;101694.31;;;10.77
7830;BMP180;3960;51.86894000;5.39848000;2023-05-06T05:01:38;101686.94;;;10.74
7830;BMP180;3960;51.86894000;5.39848000;2023-05-06T05:04:04;101700.50;;;10.81
7830;BMP180;3960;51.86894000;5.39848000;2023-05-06T05:06:29;101697.41;;;10.83
7830;BMP180;3960;51.86894000;5.39848000;2023-05-06T05:08:56;101685.41;;;10.84
7830;BMP180;3960;51.86894000;5.39848000;2023-05-06T05:11:21;101689.69;;;10.98
7830;BMP180;3960;51.86894000;5.39848000;2023-05-06T05:13:46;101692.00;;;11.07
7830;BMP180;3960;51.86894000;5.39848000;2023-05-06T05:16:12;101697.44;;;11.17
7830;BMP180;3960;51.86894000;5.39848000;2023-05-06T05:18:37;101692.78;;;11.32
7830;BMP180;3960;51.86894000;5.39848000;2023-05-06T05:21:02;101698.19;;;11.35
7830;BMP180;3960;51.86894000;5.39848000;2023-05-06T05:23:28;101703.25;;;11.37
7830;BMP180;3960;51.86894000;5.39848000;2023-05-06T05:25:53;101712.56;;;11.39
7830;BMP180;3960;51.86894000;5.39848000;2023-05-06T05:28:18;101707.91;;;11.36
7830;BMP180;3960;51.86894000;5.39848000;2023-05-06T05:30:43;101711.75;;;11.39
7830;BMP180;3960;51.86894000;5.39848000;2023-05-06T05:33:09;101704.03;;;11.34
7830;BMP180;3960;51.86894000;5.39848000;2023-05-06T05:35:34;101699.00;;;11.29
7830;BMP180;3960;51.86894000;5.39848000;2023-05-06T05:37:59;101715.63;;;11.38
7830;BMP180;3960;51.86894000;5.39848000;2023-05-06T05:40:25;101718.34;;;11.41
7830;BMP180;3960;51.86894000;5.39848000;2023-05-06T05:42:50;101718.75;;;11.43
7830;BMP180;3960;51.86894000;5.39848000;2023-05-06T05:45:15;101717.97;;;11.46
7830;BMP180;3960;51.86894000;5.39848000;2023-05-06T05:47:40;101715.66;;;11.52
7830;BMP180;3960;51.86894000;5.39848000;2023-05-06T05:50:06;101719.91;;;11.56
7830;BMP180;3960;51.86894000;5.39848000;2023-05-06T05:52:32;101714.09;;;11.58
7830;BMP180;3960;51.86894000;5.39848000;2023-05-06T05:54:57;101713.34;;;11.64
7830;BMP180;3960;51.86894000;5.39848000;2023-05-06T05:57:22;101718.34;;;11.79
7830;BMP180;3960;51.86894000;5.39848000;2023-05-06T05:59:47;101717.56;;;11.86
7830;BMP180;3960;51.86894000;5.39848000;2023-05-06T06:02:13;101725.28;;;11.94
7830;BMP180;3960;51.86894000;5.39848000;2023-05-06T06:04:38;101723.72;;;11.97
7830;BMP180;3960;51.86894000;5.39848000;2023-05-06T06:07:04;101723.31;;;12.05
7830;BMP180;3960;51.86894000;5.39848000;2023-05-06T06:09:29;101719.44;;;12.10
7830;BMP180;3960;51.86894000;5.39848000;2023-05-06T06:11:54;101726.00;;;12.16
7830;BMP180;3960;51.86894000;5.39848000;2023-05-06T06:14:20;101729.47;;;12.20
7830;BMP180;3960;51.86894000;5.39848000;2023-05-06T06:16:45;101716.66;;;12.24
7830;BMP180;3960;51.86894000;5.39848000;2023-05-06T06:19:12;101720.09;;;12.35
7830;BMP180;3960;51.86894000;5.39848000;2023-05-06T06:21:38;101716.97;;;12.39
7830;BMP180;3960;51.86894000;5.39848000;2023-05-06T06:24:03;101730.50;;;12.53
7830;BMP180;3960;51.86894000;5.39848000;2023-05-06T06:26:29;101713.84;;;12.51
7830;BMP180;3960;51.86894000;5.39848000;2023-05-06T06:28:54;101725.38;;;12.69
7830;BMP180;3960;51.86894000;5.39848000;2023-05-06T06:31:19;101727.22;;;12.83
7830;BMP180;3960;51.86894000;5.39848000;2023-05-06T06:33:45;101730.28;;;12.95
7830;BMP180;3960;51.86894000;5.39848000;2023-05-06T06:36:10;101731.38;;;13.08
7830;BMP180;3960;51.86894000;5.39848000;2023-05-06T06:38:35;101722.75;;;13.16
7830;BMP180;3960;51.86894000;5.39848000;2023-05-06T06:41:00;101727.00;;;13.21
7830;BMP180;3960;51.86894000;5.39848000;2023-05-06T06:43:26;101731.50;;;13.38
7830;BMP180;3960;51.86894000;5.39848000;2023-05-06T06:45:51;101735.31;;;13.47
7830;BMP180;3960;51.86894000;5.39848000;2023-05-06T06:48:16;101727.06;;;13.58
7830;BMP180;3960;51.86894000;5.39848000;2023-05-06T06:50:42;101732.34;;;13.75
7830;BMP180;3960;51.86894000;5.39848000;2023-05-06T06:53:08;101729.06;;;13.90
7830;BMP180;3960;51.86894000;5.39848000;2023-05-06T06:55:33;101729.72;;;14.05
7830;BMP180;3960;51.86894000;5.39848000;2023-05-06T06:57:59;101734.63;;;14.20
7830;BMP180;3960;51.86894000;5.39848000;2023-05-06T07:00:24;101733.75;;;14.27
7830;BMP180;3960;51.86894000;5.39848000;2023-05-06T07:02:50;101735.66;;;14.30
7830;BMP180;3960;51.86894000;5.39848000;2023-05-06T07:05:15;101733.19;;;14.39
7830;BMP180;3960;51.86894000;5.39848000;2023-05-06T07:07:41;101729.25;;;14.43
7830;BMP180;3960;51.86894000;5.39848000;2023-05-06T07:10:07;101718.28;;;14.50
7830;BMP180;3960;51.86894000;5.39848000;2023-05-06T07:12:32;101736.19;;;14.77
7830;BMP180;3960;51.86894000;5.39848000;2023-05-06T07:14:58;101746.09;;;14.94
7830;BMP180;3960;51.86894000;5.39848000;2023-05-06T07:17:23;101742.31;;;15.11
7830;BMP180;3960;51.86894000;5.39848000;2023-05-06T07:19:48;101746.47;;;15.23
7830;BMP180;3960;51.86894000;5.39848000;2023-05-06T07:22:13;101755.94;;;15.41
7830;BMP180;3960;51.86894000;5.39848000;2023-05-06T07:24:39;101751.47;;;15.50
7830;BMP180;3960;51.86894000;5.39848000;2023-05-06T07:27:04;101766.06;;;15.63
7830;BMP180;3960;51.86894000;5.39848000;2023-05-06T07:29:29;101767.47;;;15.71
7830;BMP180;3960;51.86894000;5.39848000;2023-05-06T07:31:55;101771.94;;;15.85
7830;BMP180;3960;51.86894000;5.39848000;2023-05-06T07:34:20;101771.69;;;15.99
7830;BMP180;3960;51.86894000;5.39848000;2023-05-06T07:36:45;101772.25;;;15.90
7830;BMP180;3960;51.86894000;5.39848000;2023-05-06T07:39:12;101766.91;;;15.83
7830;BMP180;3960;51.86894000;5.39848000;2023-05-06T07:41:37;101772.44;;;15.80
7830;BMP180;3960;51.86894000;5.39848000;2023-05-06T07:44:03;101769.09;;;15.69
7830;BMP180;3960;51.86894000;5.39848000;2023-05-06T07:46:29;101763.44;;;15.79
7830;BMP180;3960;51.86894000;5.39848000;2023-05-06T07:48:54;101775.59;;;15.98
7830;BMP180;3960;51.86894000;5.39848000;2023-05-06T07:51:20;101777.34;;;16.07
7830;BMP180;3960;51.86894000;5.39848000;2023-05-06T07:53:45;101778.72;;;16.19
7830;BMP180;3960;51.86894000;5.39848000;2023-05-06T07:56:11;101775.81;;;16.29
7830;BMP180;3960;51.86894000;5.39848000;2023-05-06T07:58:36;101775.59;;;16.40
7830;BMP180;3960;51.86894000;5.39848000;2023-05-06T08:01:01;101777.53;;;16.59
7830;BMP180;3960;51.86894000;5.39848000;2023-05-06T08:03:28;101769.56;;;16.68
7830;BMP180;3960;51.86894000;5.39848000;2023-05-06T08:05:54;101780.28;;;16.78
7830;BMP180;3960;51.86894000;5.39848000;2023-05-06T08:08:20;101786.63;;;16.91
7830;BMP180;3960;51.86894000;5.39848000;2023-05-06T08:10:46;101789.31;;;17.10
7830;BMP180;3960;51.86894000;5.39848000;2023-05-06T08:13:11;101790.69;;;17.18
7830;BMP180;3960;51.86894000;5.39848000;2023-05-06T08:15:37;101796.22;;;17.34
7830;BMP180;3960;51.86894000;5.39848000;2023-05-06T08:18:03;101798.09;;;17.37
7830;BMP180;3960;51.86894000;5.39848000;2023-05-06T08:20:28;101791.84;;;17.53
7830;BMP180;3960;51.86894000;5.39848000;2023-05-06T08:22:54;101799.38;;;17.64
7830;BMP180;3960;51.86894000;5.39848000;2023-05-06T08:25:19;101800.91;;;17.81
7830;BMP180;3960;51.86894000;5.39848000;2023-05-06T08:27:44;101795.75;;;17.83
7830;BMP180;3960;51.86894000;5.39848000;2023-05-06T08:30:10;101800.47;;;17.83
7830;BMP180;3960;51.86894000;5.39848000;2023-05-06T08:32:37;101798.50;;;17.83
7830;BMP180;3960;51.86894000;5.39848000;2023-05-06T08:35:02;101796.25;;;17.94
7830;BMP180;3960;51.86894000;5.39848000;2023-05-06T08:37:28;101797.28;;;18.00
7830;BMP180;3960;51.86894000;5.39848000;2023-05-06T08:39:54;101797.56;;;18.18
7830;BMP180;3960;51.86894000;5.39848000;2023-05-06T08:42:21;101796.94;;;18.55
7830;BMP180;3960;51.86894000;5.39848000;2023-05-06T08:44:50;101799.34;;;18.94
7830;BMP180;3960;51.86894000;5.39848000;2023-05-06T08:47:15;101791.34;;;19.36
7830;BMP180;3960;51.86894000;5.39848000;2023-05-06T08:49:41;101795.69;;;19.71
7830;BMP180;3960;51.86894000;5.39848000;2023-05-06T08:52:07;101787.59;;;19.89
7830;BMP180;3960;51.86894000;5.39848000;2023-05-06T08:54:34;101790.03;;;20.42
7830;BMP180;3960;51.86894000;5.39848000;2023-05-06T08:57:03;101788.41;;;20.96
7830;BMP180;3960;51.86894000;5.39848000;2023-05-06T08:59:30;101785.03;;;21.40
7830;BMP180;3960;51.86894000;5.39848000;2023-05-06T09:01:58;101783.75;;;21.63
7830;BMP180;3960;51.86894000;5.39848000;2023-05-06T09:04:23;101794.56;;;21.48
7830;BMP180;3960;51.86894000;5.39848000;2023-05-06T09:06:49;101780.84;;;21.84
7830;BMP180;3960;51.86894000;5.39848000;2023-05-06T09:09:15;101782.72;;;22.32
7830;BMP180;3960;51.86894000;5.39848000;2023-05-06T09:11:40;101773.50;;;22.26
7830;BMP180;3960;51.86894000;5.39848000;2023-05-06T09:14:15;101767.38;;;22.40
7830;BMP180;3960;51.86894000;5.39848000;2023-05-06T09:16:46;101771.81;;;22.02
7830;BMP180;3960;51.86894000;5.39848000;2023-05-06T09:19:14;101767.50;;;22.63
7830;BMP180;3960;51.86894000;5.39848000;2023-05-06T09:21:41;101753.41;;;23.02
7830;BMP180;3960;51.86894000;5.39848000;2023-05-06T09:24:08;101762.34;;;23.53
7830;BMP180;3960;51.86894000;5.39848000;2023-05-06T09:26:35;101751.69;;;23.60
7830;BMP180;3960;51.86894000;5.39848000;2023-05-06T09:29:01;101762.09;;;23.65
7830;BMP180;3960;51.86894000;5.39848000;2023-05-06T09:31:27;101764.84;;;23.19
7830;BMP180;3960;51.86894000;5.39848000;2023-05-06T09:33:54;101761.34;;;22.59
7830;BMP180;3960;51.86894000;5.39848000;2023-05-06T09:36:20;101742.03;;;23.00
7830;BMP180;3960;51.86894000;5.39848000;2023-05-06T09:38:45;101743.13;;;22.94
7830;BMP180;3960;51.86894000;5.39848000;2023-05-06T09:41:12;101747.81;;;23.44
7830;BMP180;3960;51.86894000;5.39848000;2023-05-06T09:43:38;101753.06;;;23.88
7830;BMP180;3960;51.86894000;5.39848000;2023-05-06T09:46:06;101747.66;;;24.08
7830;BMP180;3960;51.86894000;5.39848000;2023-05-06T09:48:32;101743.41;;;24.50
7830;BMP180;3960;51.86894000;5.39848000;2023-05-06T09:50:58;101738.88;;;24.24
7830;BMP180;3960;51.86894000;5.39848000;2023-05-06T09:53:24;101749.25;;;24.00
7830;BMP180;3960;51.86894000;5.39848000;2023-05-06T09:55:51;101739.78;;;23.92
7830;BMP180;3960;51.86894000;5.39848000;2023-05-06T09:58:18;101749.47;;;23.73
7830;BMP180;3960;51.86894000;5.39848000;2023-05-06T10:00:44;101734.69;;;24.14
7830;BMP180;3960;51.86894000;5.39848000;2023-05-06T10:03:10;101736.34;;;23.97
7830;BMP180;3960;51.86894000;5.39848000;2023-05-06T10:05:36;101732.03;;;24.34
7830;BMP180;3960;51.86894000;5.39848000;2023-05-06T10:08:02;101733.91;;;24.71
7830;BMP180;3960;51.86894000;5.39848000;2023-05-06T10:10:32;101731.66;;;24.41
7830;BMP180;3960;51.86894000;5.39848000;2023-05-06T10:12:59;101732.28;;;23.93
7830;BMP180;3960;51.86894000;5.39848000;2023-05-06T10:15:26;101729.25;;;24.34
7830;BMP180;3960;51.86894000;5.39848000;2023-05-06T10:17:51;101722.88;;;24.57
7830;BMP180;3960;51.86894000;5.39848000;2023-05-06T10:20:20;101716.66;;;24.62
7830;BMP180;3960;51.86894000;5.39848000;2023-05-06T10:23:17;101706.72;;;24.55
7830;BMP180;3960;51.86894000;5.39848000;2023-05-06T10:25:47;101719.09;;;24.89
7830;BMP180;3960;51.86894000;5.39848000;2023-05-06T10:28:17;101707.34;;;24.94
7830;BMP180;3960;51.86894000;5.39848000;2023-05-06T10:30:43;101687.44;;;25.09
7830;BMP180;3960;51.86894000;5.39848000;2023-05-06T10:33:10;101707.34;;;25.48
7830;BMP180;3960;51.86894000;5.39848000;2023-05-06T10:38:11;101705.63;;;25.95
7830;BMP180;3960;51.86894000;5.39848000;2023-05-06T10:40:38;101682.16;;;25.91
7830;BMP180;3960;51.86894000;5.39848000;2023-05-06T10:43:32;101701.94;;;25.79
7830;BMP180;3960;51.86894000;5.39848000;2023-05-06T10:48:25;101684.25;;;25.16
7830;BMP180;3960;51.86894000;5.39848000;2023-05-06T10:50:50;101681.41;;;25.31
7830;BMP180;3960;51.86894000;5.39848000;2023-05-06T10:53:15;101690.00;;;25.33
7830;BMP180;3960;51.86894000;5.39848000;2023-05-06T10:55:40;101682.72;;;25.35
7830;BMP180;3960;51.86894000;5.39848000;2023-05-06T10:58:13;101679.25;;;25.60
7830;BMP180;3960;51.86894000;5.39848000;2023-05-06T11:00:39;101684.94;;;25.71
7830;BMP180;3960;51.86894000;5.39848000;2023-05-06T11:03:15;101678.28;;;25.23
7830;BMP180;3960;51.86894000;5.39848000;2023-05-06T11:05:50;101674.16;;;24.99
7830;BMP180;3960;51.86894000;5.39848000;2023-05-06T11:08:24;101671.94;;;24.69
7830;BMP180;3960;51.86894000;5.39848000;2023-05-06T11:10:50;101672.81;;;24.95
7830;BMP180;3960;51.86894000;5.39848000;2023-05-06T11:13:26;101670.03;;;25.09
7830;BMP180;3960;51.86894000;5.39848000;2023-05-06T11:15:53;101670.38;;;25.16
7830;BMP180;3960;51.86894000;5.39848000;2023-05-06T11:26:16;101656.66;;;25.27
7830;BMP180;3960;51.86894000;5.39848000;2023-05-06T11:28:43;101660.53;;;25.55
7830;BMP180;3960;51.86894000;5.39848000;2023-05-06T11:31:09;101667.59;;;25.76
7830;BMP180;3960;51.86894000;5.39848000;2023-05-06T11:33:36;101662.34;;;25.38
7830;BMP180;3960;51.86894000;5.39848000;2023-05-06T11:36:04;101658.81;;;25.38
7830;BMP180;3960;51.86894000;5.39848000;2023-05-06T11:38:50;101661.53;;;25.32
7830;BMP180;3960;51.86894000;5.39848000;2023-05-06T11:41:17;101653.41;;;25.29
7830;BMP180;3960;51.86894000;5.39848000;2023-05-06T11:43:46;101658.97;;;25.29
7830;BMP180;3960;51.86894000;5.39848000;2023-05-06T11:46:13;101649.31;;;25.44
7830;BMP180;3960;51.86894000;5.39848000;2023-05-06T11:48:39;101654.50;;;25.37
7830;BMP180;3960;51.86894000;5.39848000;2023-05-06T11:51:04;101661.94;;;25.45
7830;BMP180;3960;51.86894000;5.39848000;2023-05-06T11:53:29;101647.91;;;25.54
7830;BMP180;3960;51.86894000;5.39848000;2023-05-06T11:55:55;101640.84;;;25.98
7830;BMP180;3960;51.86894000;5.39848000;2023-05-06T11:58:27;101657.03;;;26.31
7830;BMP180;3960;51.86894000;5.39848000;2023-05-06T12:01:00;101658.66;;;26.43
7830;BMP180;3960;51.86894000;5.39848000;2023-05-06T12:03:27;101635.66;;;26.11
7830;BMP180;3960;51.86894000;5.39848000;2023-05-06T12:05:53;101650.97;;;26.01
7830;BMP180;3960;51.86894000;5.39848000;2023-05-06T12:08:21;101647.09;;;25.48
7830;BMP180;3960;51.86894000;5.39848000;2023-05-06T12:10:49;101653.63;;;25.45
7830;BMP180;3960;51.86894000;5.39848000;2023-05-06T12:13:15;101656.41;;;25.45
7830;BMP180;3960;51.86894000;5.39848000;2023-05-06T12:15:41;101646.31;;;25.68
7830;BMP180;3960;51.86894000;5.39848000;2023-05-06T12:18:07;101637.09;;;25.76
7830;BMP180;3960;51.86894000;5.39848000;2023-05-06T12:20:33;101648.56;;;25.89
7830;BMP180;3960;51.86894000;5.39848000;2023-05-06T12:23:09;101632.78;;;25.55
7830;BMP180;3960;51.86894000;5.39848000;2023-05-06T12:25:36;101633.19;;;25.23
7830;BMP180;3960;51.86894000;5.39848000;2023-05-06T12:28:22;101648.00;;;25.20
7830;BMP180;3960;51.86894000;5.39848000;2023-05-06T12:30:47;101646.41;;;25.33
7830;BMP180;3960;51.86894000;5.39848000;2023-05-06T12:33:13;101649.09;;;25.48
7830;BMP180;3960;51.86894000;5.39848000;2023-05-06T12:35:39;101647.59;;;25.47
7830;BMP180;3960;51.86894000;5.39848000;2023-05-06T12:38:15;101643.69;;;25.59
7830;BMP180;3960;51.86894000;5.39848000;2023-05-06T12:40:42;101650.53;;;25.83
7830;BMP180;3960;51.86894000;5.39848000;2023-05-06T12:43:09;101635.44;;;25.89
7830;BMP180;3960;51.86894000;5.39848000;2023-05-06T12:45:34;101648.22;;;26.07